createdAt,value
2022-08-27T00:00:06.399Z,86.15
2022-08-27T00:02:36.091Z,86.49
2022-08-27T00:05:03.412Z,86.40
2022-08-27T00:07:30.195Z,86.24
2022-08-27T00:09:56.911Z,86.07
2022-08-27T00:12:23.549Z,86.61
2022-08-27T00:14:50.290Z,86.83
2022-08-27T00:17:17.175Z,87.20
2022-08-27T00:19:44.279Z,87.55
2022-08-27T00:22:12.100Z,87.47
2022-08-27T00:24:48.464Z,87.19
2022-08-27T00:27:15.897Z,87.43
2022-08-27T00:29:42.564Z,87.59
2022-08-27T00:32:09.376Z,87.60
2022-08-27T00:34:36.222Z,87.82
2022-08-27T00:37:03.645Z,87.88
2022-08-27T00:39:30.453Z,88.05
2022-08-27T00:41:57.120Z,87.49
2022-08-27T00:44:32.094Z,87.61
2022-08-27T00:47:01.558Z,88.10
2022-08-27T00:49:39.654Z,88.01
2022-08-27T00:52:17.043Z,87.89
2022-08-27T00:54:43.720Z,87.53
2022-08-27T00:57:10.358Z,87.78
2022-08-27T00:59:37.022Z,87.92
2022-08-27T01:02:19.289Z,87.92
2022-08-27T01:05:07.792Z,87.49
2022-08-27T01:07:37.783Z,87.38
2022-08-27T01:10:07.258Z,87.38
2022-08-27T01:12:33.999Z,87.52
2022-08-27T01:15:01.906Z,87.55
2022-08-27T01:17:28.562Z,87.13
2022-08-27T01:20:00.535Z,86.99
2022-08-27T01:22:31.724Z,87.46
2022-08-27T01:25:04.859Z,87.53
2022-08-27T01:27:31.783Z,87.40
2022-08-27T01:29:58.787Z,87.45
2022-08-27T01:32:28.720Z,87.83
2022-08-27T01:34:56.411Z,87.95
2022-08-27T01:37:24.264Z,87.84
2022-08-27T01:39:52.137Z,88.06
2022-08-27T01:42:39.338Z,88.44
2022-08-27T01:45:07.647Z,88.26
2022-08-27T01:47:34.917Z,88.27
2022-08-27T01:50:01.981Z,88.09
2022-08-27T01:52:29.855Z,87.99
2022-08-27T01:54:56.656Z,87.49
2022-08-27T01:57:26.018Z,87.42
2022-08-27T01:59:53.597Z,87.41
2022-08-27T02:02:21.288Z,88.04
2022-08-27T02:04:48.030Z,88.96
2022-08-27T02:07:14.676Z,89.36
2022-08-27T02:09:41.506Z,89.63
2022-08-27T02:12:09.471Z,89.15
2022-08-27T02:14:36.150Z,88.41
2022-08-27T02:17:02.916Z,88.37
2022-08-27T02:19:29.670Z,87.98
2022-08-27T02:22:00.312Z,88.25
2022-08-27T02:24:29.308Z,87.91
2022-08-27T02:27:03.239Z,88.33
2022-08-27T02:29:30.032Z,88.60
2022-08-27T02:31:56.870Z,89.01
2022-08-27T02:34:23.574Z,90.40
2022-08-27T02:36:50.501Z,89.57
2022-08-27T02:39:17.248Z,89.94
2022-08-27T02:41:43.919Z,90.43
2022-08-27T02:44:11.403Z,90.37
2022-08-27T02:46:41.833Z,90.97
2022-08-27T02:49:09.598Z,90.89
2022-08-27T02:51:36.844Z,91.59
2022-08-27T02:54:03.612Z,92.01
2022-08-27T02:56:30.248Z,91.99
2022-08-27T02:58:56.913Z,91.70
2022-08-27T03:01:23.671Z,92.00
2022-08-27T03:03:50.550Z,91.82
2022-08-27T03:06:17.286Z,91.14
2022-08-27T03:08:52.099Z,91.38
2022-08-27T03:11:20.585Z,91.34
2022-08-27T03:13:47.233Z,91.16
2022-08-27T03:16:13.963Z,90.54
2022-08-27T03:18:40.794Z,90.62
2022-08-27T03:21:08.391Z,90.93
2022-08-27T03:23:35.381Z,92.45
2022-08-27T03:26:04.463Z,93.59
2022-08-27T03:28:32.875Z,93.25
2022-08-27T03:31:01.496Z,92.90
2022-08-27T03:33:29.735Z,93.08
2022-08-27T03:35:56.466Z,92.68
2022-08-27T03:38:23.116Z,92.67
2022-08-27T03:40:50.333Z,92.92
2022-08-27T03:43:17.413Z,92.42
2022-08-27T03:46:00.694Z,92.22
2022-08-27T03:48:29.390Z,91.84
2022-08-27T03:50:56.080Z,92.05
2022-08-27T03:53:22.713Z,91.69
2022-08-27T03:55:49.404Z,91.23
2022-08-27T03:58:22.341Z,91.55
2022-08-27T04:00:49.012Z,91.33
2022-08-27T04:03:15.959Z,91.68
2022-08-27T04:05:45.306Z,91.48
2022-08-27T04:08:13.467Z,91.55
2022-08-27T04:10:41.274Z,90.90
2022-08-27T04:13:07.958Z,91.30
2022-08-27T04:15:34.717Z,90.57
2022-08-27T04:18:07.198Z,90.04
2022-08-27T04:20:35.753Z,89.52
2022-08-27T04:23:03.067Z,89.31
2022-08-27T04:25:29.751Z,89.43
2022-08-27T04:27:56.526Z,89.50
2022-08-27T04:30:23.272Z,89.73
2022-08-27T04:32:50.761Z,89.74
2022-08-27T04:35:17.727Z,90.28
2022-08-27T04:37:44.463Z,90.53
2022-08-27T04:40:12.394Z,90.28
2022-08-27T04:42:39.217Z,90.27
2022-08-27T04:45:06.290Z,89.60
2022-08-27T04:47:33.294Z,89.49
2022-08-27T04:49:59.959Z,88.99
2022-08-27T04:52:26.852Z,87.59
2022-08-27T04:54:53.574Z,86.77
2022-08-27T04:57:20.970Z,86.63
2022-08-27T04:59:47.668Z,86.50
2022-08-27T05:02:14.370Z,86.60
2022-08-27T05:04:41.153Z,86.50
2022-08-27T05:07:08.679Z,86.07
2022-08-27T05:09:35.396Z,86.03
2022-08-27T05:12:02.392Z,86.11
2022-08-27T05:14:30.457Z,85.62
2022-08-27T05:16:58.253Z,85.31
2022-08-27T05:19:24.960Z,85.21
2022-08-27T05:21:52.067Z,84.97
2022-08-27T05:24:18.736Z,84.81
2022-08-27T05:26:45.641Z,84.70
2022-08-27T05:29:12.361Z,84.38
2022-08-27T05:31:39.467Z,83.78
2022-08-27T05:34:10.623Z,83.59
2022-08-27T05:36:38.495Z,83.49
2022-08-27T05:39:16.116Z,82.93
2022-08-27T05:41:43.412Z,82.66
2022-08-27T05:44:39.103Z,81.46
2022-08-27T05:46:57.021Z,79.20
2022-08-27T05:49:23.896Z,74.27
2022-08-27T05:51:50.614Z,70.91
2022-08-27T05:54:20.036Z,68.18
2022-08-27T05:56:47.288Z,63.28
2022-08-27T05:59:34.791Z,58.89
2022-08-27T06:02:01.730Z,54.65
2022-08-27T06:04:28.376Z,51.93
2022-08-27T06:06:55.056Z,51.94
2022-08-27T06:09:24.614Z,50.52
2022-08-27T06:11:53.149Z,47.85
2022-08-27T06:14:19.895Z,46.26
2022-08-27T06:16:46.556Z,42.38
2022-08-27T06:19:13.343Z,40.25
2022-08-27T06:21:43.570Z,38.65
2022-08-27T06:24:13.037Z,38.19
2022-08-27T06:26:40.969Z,38.97
2022-08-27T06:29:08.125Z,39.54
2022-08-27T06:31:38.836Z,40.62
2022-08-27T06:34:08.056Z,42.69
2022-08-27T06:36:37.087Z,44.08
2022-08-27T06:39:04.139Z,45.36
2022-08-27T06:41:30.891Z,46.78
2022-08-27T06:43:58.535Z,48.89
2022-08-27T06:46:26.650Z,50.42
2022-08-27T06:48:54.521Z,51.39
2022-08-27T06:51:24.633Z,52.71
2022-08-27T06:53:52.623Z,53.96
2022-08-27T06:56:19.480Z,54.33
2022-08-27T06:58:46.253Z,54.36
2022-08-27T07:01:14.240Z,55.31
2022-08-27T07:03:41.622Z,55.40
2022-08-27T07:06:08.539Z,57.06
2022-08-27T07:08:35.227Z,57.33
2022-08-27T07:11:02.230Z,58.07
2022-08-27T07:13:29.793Z,56.95
2022-08-27T07:15:56.896Z,56.70
2022-08-27T07:18:27.847Z,55.56
2022-08-27T07:20:54.862Z,54.57
2022-08-27T07:23:21.813Z,52.23
2022-08-27T07:25:48.697Z,51.10
2022-08-27T07:28:15.417Z,51.00
2022-08-27T07:30:42.269Z,51.95
2022-08-27T07:33:09.440Z,53.41
2022-08-27T07:35:36.249Z,53.74
2022-08-27T07:38:02.906Z,52.04
2022-08-27T07:40:30.092Z,53.11
2022-08-27T07:43:15.749Z,53.58
2022-08-27T07:45:48.161Z,53.57
2022-08-27T07:48:16.483Z,52.21
2022-08-27T07:50:43.730Z,51.40
2022-08-27T07:53:10.523Z,52.36
2022-08-27T07:55:38.546Z,51.33
2022-08-27T07:58:05.596Z,50.39
2022-08-27T08:00:52.555Z,50.39
2022-08-27T08:03:19.279Z,50.47
2022-08-27T08:05:45.969Z,50.80
2022-08-27T08:08:13.674Z,51.88
2022-08-27T08:10:40.990Z,51.89
2022-08-27T08:13:08.144Z,53.17
2022-08-27T08:15:34.867Z,54.00
2022-08-27T08:18:01.786Z,54.67
2022-08-27T08:20:54.157Z,55.49
2022-08-27T08:23:15.397Z,55.93
2022-08-27T08:25:42.424Z,54.75
2022-08-27T08:28:09.479Z,55.81
2022-08-27T08:30:36.521Z,56.59
2022-08-27T08:33:03.254Z,56.20
2022-08-27T08:35:34.961Z,57.11
2022-08-27T08:38:07.407Z,57.37
2022-08-27T08:40:40.646Z,57.99
2022-08-27T08:43:30.459Z,59.14
2022-08-27T08:45:59.607Z,59.88
2022-08-27T08:48:26.715Z,62.45
2022-08-27T08:51:05.989Z,61.87
2022-08-27T08:53:51.196Z,63.00
2022-08-27T08:56:55.274Z,61.38
2022-08-27T08:59:28.608Z,60.63
2022-08-27T09:01:55.471Z,61.29
2022-08-27T09:04:22.165Z,61.55
2022-08-27T09:07:15.712Z,60.17
2022-08-27T09:09:57.663Z,59.72
2022-08-27T09:12:30.294Z,58.81
2022-08-27T09:15:07.579Z,59.43
2022-08-27T09:17:40.496Z,59.16
2022-08-27T09:20:13.247Z,59.11
2022-08-27T09:23:05.763Z,58.27
2022-08-27T09:25:34.378Z,57.68
2022-08-27T09:28:03.364Z,56.88
2022-08-27T09:30:32.323Z,57.25
2022-08-27T09:33:01.099Z,56.36
2022-08-27T09:35:57.564Z,55.49
2022-08-27T09:38:28.964Z,55.93
2022-08-27T09:40:56.877Z,55.90
2022-08-27T09:43:25.048Z,55.61
2022-08-27T09:46:00.300Z,54.38
2022-08-27T09:48:31.921Z,55.09
2022-08-27T09:51:08.932Z,56.16
2022-08-27T09:53:50.362Z,55.97
2022-08-27T09:56:25.221Z,52.17
2022-08-27T09:58:54.425Z,53.68
2022-08-27T10:01:26.146Z,53.51
2022-08-27T10:04:06.305Z,54.66
2022-08-27T10:06:33.246Z,53.14
2022-08-27T10:09:10.786Z,53.97
2022-08-27T10:12:05.523Z,54.45
2022-08-27T10:14:35.036Z,54.19
2022-08-27T10:17:35.677Z,54.58
2022-08-27T10:20:30.501Z,54.94
2022-08-27T10:23:06.729Z,54.37
2022-08-27T10:25:55.701Z,54.68
2022-08-27T10:28:36.849Z,55.01
2022-08-27T10:31:19.296Z,55.03
2022-08-27T10:33:55.555Z,55.73
2022-08-27T10:36:27.946Z,57.22
2022-08-27T10:39:16.666Z,58.16
2022-08-27T10:41:54.316Z,57.42
2022-08-27T10:45:04.515Z,56.95
2022-08-27T10:47:31.123Z,57.25
2022-08-27T10:50:03.708Z,59.51
2022-08-27T10:52:56.501Z,59.32
2022-08-27T10:55:30.191Z,60.12
2022-08-27T10:58:13.563Z,61.63
2022-08-27T11:00:45.610Z,62.49
2022-08-27T11:03:25.071Z,63.59
2022-08-27T11:05:52.048Z,64.62
2022-08-27T11:08:36.421Z,65.74
2022-08-27T11:11:35.011Z,65.98
2022-08-27T11:13:53.785Z,67.21
2022-08-27T11:16:33.237Z,67.13
2022-08-27T11:19:01.669Z,67.46
2022-08-27T11:21:46.154Z,67.74
2022-08-27T11:24:47.825Z,67.93
2022-08-27T11:27:15.921Z,68.17
2022-08-27T11:29:50.702Z,68.14
2022-08-27T11:32:23.893Z,68.08
2022-08-27T11:34:53.686Z,67.58
2022-08-27T11:37:39.830Z,67.18
2022-08-27T11:40:06.760Z,66.96
2022-08-27T11:42:42.246Z,66.49
2022-08-27T11:45:16.017Z,66.24
2022-08-27T11:47:54.697Z,66.28
2022-08-27T11:50:21.935Z,64.67
2022-08-27T11:52:58.358Z,66.16
2022-08-27T11:55:28.864Z,65.52
2022-08-27T11:58:18.271Z,62.92
2022-08-27T12:00:45.996Z,61.40
2022-08-27T12:03:18.904Z,59.62
2022-08-27T12:05:54.882Z,59.30
2022-08-27T12:08:22.465Z,58.23
2022-08-27T12:11:04.071Z,58.32
2022-08-27T12:14:00.278Z,57.87
2022-08-27T12:16:32.777Z,56.51
2022-08-27T12:19:20.839Z,55.08
2022-08-27T12:21:47.624Z,55.54
2022-08-27T12:24:30.809Z,54.50
2022-08-27T12:27:00.079Z,52.78
2022-08-27T12:29:51.087Z,53.42
2022-08-27T12:32:25.228Z,53.08
2022-08-27T12:35:20.031Z,52.83
2022-08-27T12:38:05.435Z,51.50
2022-08-27T12:40:46.496Z,50.43
2022-08-27T12:43:25.000Z,50.42
2022-08-27T12:46:19.877Z,51.22
2022-08-27T12:48:48.562Z,51.92
2022-08-27T12:51:31.298Z,51.87
2022-08-27T12:54:00.711Z,52.17
2022-08-27T12:56:49.269Z,51.68
2022-08-27T12:59:30.348Z,51.32
2022-08-27T13:02:31.337Z,50.28
2022-08-27T13:04:58.063Z,49.88
2022-08-27T13:07:28.793Z,50.65
2022-08-27T13:10:10.843Z,51.36
2022-08-27T13:12:37.481Z,51.66
2022-08-27T13:15:08.430Z,51.87
2022-08-27T13:17:41.762Z,52.03
2022-08-27T13:20:24.914Z,51.50
2022-08-27T13:22:52.652Z,50.87
2022-08-27T13:25:33.605Z,50.52
2022-08-27T13:28:13.347Z,51.19
2022-08-27T13:30:42.295Z,52.33
2022-08-27T13:33:11.309Z,52.07
2022-08-27T13:35:38.362Z,50.75
2022-08-27T13:38:05.744Z,51.76
2022-08-27T13:40:34.616Z,50.90
2022-08-27T13:43:08.719Z,51.34
2022-08-27T13:45:36.915Z,51.57
2022-08-27T13:48:04.282Z,51.44
2022-08-27T13:50:31.682Z,51.57
2022-08-27T13:53:23.852Z,51.44
2022-08-27T13:55:50.738Z,51.65
2022-08-27T13:58:27.839Z,52.37
2022-08-27T14:00:54.929Z,51.89
2022-08-27T14:03:31.622Z,52.54
2022-08-27T14:05:58.599Z,51.68
2022-08-27T14:08:29.743Z,51.14
2022-08-27T14:11:05.101Z,50.46
2022-08-27T14:13:45.398Z,49.96
2022-08-27T14:16:27.728Z,49.62
2022-08-27T14:19:14.361Z,50.81
2022-08-27T14:21:42.485Z,49.94
2022-08-27T14:24:09.283Z,50.10
2022-08-27T14:26:35.939Z,51.02
2022-08-27T14:29:02.702Z,50.91
2022-08-27T14:31:38.186Z,51.09
2022-08-27T14:34:06.912Z,50.88
2022-08-27T14:36:37.126Z,51.10
2022-08-27T14:39:04.168Z,51.30
2022-08-27T14:41:31.431Z,52.14
2022-08-27T14:44:10.265Z,52.76
2022-08-27T14:46:41.489Z,52.33
2022-08-27T14:49:14.894Z,51.82
2022-08-27T14:51:43.020Z,50.96
2022-08-27T14:54:09.818Z,51.00
2022-08-27T14:56:36.492Z,52.64
2022-08-27T14:59:03.364Z,52.76
2022-08-27T15:01:30.119Z,52.90
2022-08-27T15:03:56.906Z,54.14
2022-08-27T15:06:23.831Z,54.71
2022-08-27T15:08:51.177Z,54.45
2022-08-27T15:11:26.106Z,55.50
2022-08-27T15:13:53.071Z,53.41
2022-08-27T15:16:32.379Z,53.30
2022-08-27T15:19:00.874Z,53.25
2022-08-27T15:21:29.075Z,54.99
2022-08-27T15:23:58.848Z,56.19
2022-08-27T15:26:25.574Z,57.87
2022-08-27T15:28:52.240Z,58.71
2022-08-27T15:31:19.768Z,58.27
2022-08-27T15:33:46.779Z,57.84
2022-08-27T15:36:13.946Z,59.11
2022-08-27T15:38:40.784Z,59.16
2022-08-27T15:41:07.736Z,59.00
2022-08-27T15:43:34.622Z,60.48
2022-08-27T15:46:01.375Z,61.16
2022-08-27T15:48:28.056Z,59.82
2022-08-27T15:50:54.888Z,59.95
2022-08-27T15:53:23.054Z,61.64
2022-08-27T15:55:50.338Z,61.13
2022-08-27T15:58:17.110Z,60.98
2022-08-27T16:00:44.004Z,60.61
2022-08-27T16:03:11.738Z,59.95
2022-08-27T16:05:39.396Z,60.52
2022-08-27T16:08:06.289Z,61.67
2022-08-27T16:10:32.961Z,62.22
2022-08-27T16:12:59.639Z,62.79
2022-08-27T16:15:26.520Z,63.77
2022-08-27T16:17:56.273Z,62.18
2022-08-27T16:20:24.722Z,61.96
2022-08-27T16:22:51.852Z,62.42
2022-08-27T16:25:20.758Z,62.49
2022-08-27T16:27:47.706Z,62.74
2022-08-27T16:30:14.391Z,62.82
2022-08-27T16:32:41.379Z,63.48
2022-08-27T16:35:08.991Z,63.54
2022-08-27T16:37:35.664Z,64.06
2022-08-27T16:40:02.621Z,64.29
2022-08-27T16:42:29.321Z,64.83
2022-08-27T16:44:57.963Z,64.84
2022-08-27T16:47:24.616Z,65.33
2022-08-27T16:50:09.851Z,65.19
2022-08-27T16:52:58.788Z,65.51
2022-08-27T16:55:25.486Z,66.03
2022-08-27T16:57:52.076Z,66.25
2022-08-27T17:00:19.441Z,66.59
2022-08-27T17:02:46.206Z,66.68
2022-08-27T17:05:33.653Z,66.71
2022-08-27T17:07:59.510Z,66.87
2022-08-27T17:10:26.407Z,67.52
2022-08-27T17:12:54.238Z,67.64
2022-08-27T17:15:20.881Z,68.14
2022-08-27T17:17:47.560Z,68.14
2022-08-27T17:20:15.279Z,68.52
2022-08-27T17:22:42.101Z,68.53
2022-08-27T17:25:09.380Z,68.77
2022-08-27T17:27:35.975Z,69.33
2022-08-27T17:30:02.592Z,68.84
2022-08-27T17:32:29.974Z,69.45
2022-08-27T17:34:56.873Z,70.20
2022-08-27T17:37:23.560Z,69.96
2022-08-27T17:39:50.353Z,70.78
2022-08-27T17:42:17.085Z,70.66
2022-08-27T17:44:43.766Z,71.20
2022-08-27T17:47:10.452Z,70.95
2022-08-27T17:49:37.704Z,71.19
2022-08-27T17:52:09.729Z,71.71
2022-08-27T17:54:39.144Z,71.84
2022-08-27T17:57:14.766Z,71.99
2022-08-27T17:59:41.402Z,72.24
2022-08-27T18:02:09.610Z,72.59
2022-08-27T18:04:37.249Z,72.38
2022-08-27T18:07:04.211Z,72.42
2022-08-27T18:09:30.873Z,72.57
2022-08-27T18:11:58.035Z,72.94
2022-08-27T18:14:24.835Z,72.39
2022-08-27T18:16:51.558Z,72.10
2022-08-27T18:19:18.317Z,72.59
2022-08-27T18:21:46.283Z,72.47
2022-08-27T18:24:14.220Z,73.35
2022-08-27T18:26:40.899Z,73.44
2022-08-27T18:29:07.570Z,73.22
2022-08-27T18:31:34.223Z,73.30
2022-08-27T18:34:01.006Z,73.40
2022-08-27T18:36:28.001Z,73.67
2022-08-27T18:38:54.655Z,73.17
2022-08-27T18:41:21.342Z,73.62
2022-08-27T18:43:48.912Z,73.66
2022-08-27T18:46:15.857Z,73.76
2022-08-27T18:48:42.673Z,73.98
2022-08-27T18:51:10.262Z,74.48
2022-08-27T18:53:39.916Z,74.46
2022-08-27T18:56:10.288Z,74.54
2022-08-27T18:58:38.743Z,74.68
2022-08-27T19:01:07.786Z,74.33
2022-08-27T19:03:36.815Z,75.01
2022-08-27T19:06:06.805Z,74.96
2022-08-27T19:08:36.831Z,74.77
2022-08-27T19:11:03.465Z,74.91
2022-08-27T19:13:30.185Z,74.88
2022-08-27T19:16:04.718Z,74.78
2022-08-27T19:18:32.946Z,75.16
2022-08-27T19:20:59.663Z,75.56
2022-08-27T19:23:26.408Z,75.43
2022-08-27T19:25:53.185Z,75.61
2022-08-27T19:28:23.898Z,75.68
2022-08-27T19:30:50.798Z,75.84
2022-08-27T19:33:17.829Z,75.99
2022-08-27T19:35:44.518Z,75.81
2022-08-27T19:38:11.491Z,76.26
2022-08-27T19:40:38.380Z,76.74
2022-08-27T19:43:05.280Z,76.75
2022-08-27T19:45:31.964Z,76.93
2022-08-27T19:47:59.462Z,76.99
2022-08-27T19:50:26.105Z,77.05
2022-08-27T19:52:53.096Z,77.23
2022-08-27T19:55:19.970Z,77.36
2022-08-27T19:57:46.915Z,77.75
2022-08-27T20:00:14.999Z,77.08
2022-08-27T20:02:41.636Z,77.09
2022-08-27T20:05:23.855Z,77.66
2022-08-27T20:07:51.491Z,77.41
2022-08-27T20:10:19.595Z,77.41
2022-08-27T20:12:48.357Z,77.68
2022-08-27T20:15:15.647Z,77.64
2022-08-27T20:17:42.696Z,77.61
2022-08-27T20:20:11.601Z,77.76
2022-08-27T20:22:39.875Z,77.55
2022-08-27T20:25:07.019Z,77.82
2022-08-27T20:27:33.761Z,77.34
2022-08-27T20:30:05.314Z,77.65
2022-08-27T20:32:32.255Z,78.04
2022-08-27T20:34:58.887Z,78.30
2022-08-27T20:37:25.985Z,78.67
2022-08-27T20:39:52.836Z,78.61
2022-08-27T20:42:20.057Z,78.77
2022-08-27T20:45:09.758Z,78.77
2022-08-27T20:47:38.639Z,78.94
2022-08-27T20:50:05.806Z,80.18
2022-08-27T20:52:32.668Z,81.92
2022-08-27T20:54:59.376Z,82.59
2022-08-27T20:57:26.076Z,82.38
2022-08-27T21:00:11.259Z,82.29
2022-08-27T21:02:37.953Z,80.99
2022-08-27T21:05:07.446Z,80.44
2022-08-27T21:07:34.200Z,80.76
2022-08-27T21:10:00.883Z,81.08
2022-08-27T21:12:28.107Z,80.84
2022-08-27T21:14:55.882Z,80.61
2022-08-27T21:17:26.333Z,80.87
2022-08-27T21:19:52.990Z,80.56
2022-08-27T21:22:20.210Z,80.97
2022-08-27T21:24:47.630Z,81.13
2022-08-27T21:27:15.341Z,82.06
2022-08-27T21:29:42.095Z,82.29
2022-08-27T21:32:09.773Z,83.33
2022-08-27T21:34:36.740Z,82.55
2022-08-27T21:37:04.464Z,82.80
2022-08-27T21:39:32.871Z,83.20
2022-08-27T21:42:01.040Z,83.19
2022-08-27T21:44:28.351Z,83.51
2022-08-27T21:46:55.243Z,83.30
2022-08-27T21:49:21.968Z,83.28
2022-08-27T21:51:48.573Z,83.44
2022-08-27T21:54:15.318Z,83.16
2022-08-27T21:56:43.325Z,83.16
2022-08-27T21:59:10.574Z,83.12
2022-08-27T22:01:37.383Z,83.03
2022-08-27T22:04:04.148Z,82.65
2022-08-27T22:06:30.874Z,82.98
2022-08-27T22:08:57.915Z,83.81
2022-08-27T22:11:25.736Z,83.98
2022-08-27T22:13:52.981Z,84.18
2022-08-27T22:16:19.872Z,84.45
2022-08-27T22:18:46.583Z,84.63
2022-08-27T22:21:13.350Z,84.51
2022-08-27T22:23:42.320Z,84.42
2022-08-27T22:26:12.129Z,83.42
2022-08-27T22:28:39.057Z,83.49
2022-08-27T22:31:07.556Z,83.48
2022-08-27T22:33:34.320Z,83.48
2022-08-27T22:36:01.141Z,83.60
2022-08-27T22:38:27.812Z,83.64
2022-08-27T22:40:54.599Z,83.97
2022-08-27T22:43:23.491Z,85.09
2022-08-27T22:45:50.174Z,84.77
2022-08-27T22:48:16.995Z,85.06
2022-08-27T22:50:43.784Z,85.28
2022-08-27T22:53:10.544Z,85.02
2022-08-27T22:55:37.528Z,84.96
2022-08-27T22:58:04.336Z,85.03
2022-08-27T23:00:33.391Z,84.91
2022-08-27T23:03:00.647Z,85.20
2022-08-27T23:05:27.628Z,85.31
2022-08-27T23:07:55.174Z,85.29
2022-08-27T23:10:24.113Z,85.26
2022-08-27T23:12:53.535Z,85.17
2022-08-27T23:15:20.998Z,84.49
2022-08-27T23:17:47.660Z,84.36
2022-08-27T23:20:14.520Z,84.64
2022-08-27T23:22:41.356Z,85.07
2022-08-27T23:25:27.064Z,84.84
2022-08-27T23:27:53.831Z,84.45
2022-08-27T23:30:21.308Z,84.71
2022-08-27T23:32:52.685Z,84.92
2022-08-27T23:35:26.271Z,85.33
2022-08-27T23:37:53.020Z,85.28
2022-08-27T23:40:20.294Z,84.82
2022-08-27T23:42:47.517Z,85.13
2022-08-27T23:45:17.802Z,85.35
2022-08-27T23:47:44.467Z,85.57
2022-08-27T23:50:11.578Z,85.45
2022-08-27T23:52:38.432Z,85.63
2022-08-27T23:55:05.521Z,85.66
2022-08-27T23:57:32.505Z,85.38
2022-08-27T23:59:59.112Z,86.05
